createdAt,value
2023-11-19T00:00:05.579Z,579.42
2023-11-19T00:00:16.606Z,579.63
2023-11-19T00:00:27.642Z,579.17
2023-11-19T00:00:39.640Z,579.69
2023-11-19T00:00:54.491Z,579.57
2023-11-19T00:01:02.625Z,579.13
2023-11-19T00:01:14.692Z,580.28
2023-11-19T00:01:25.799Z,579.38
2023-11-19T00:01:37.732Z,579.36
2023-11-19T00:01:49.789Z,579.33
2023-11-19T00:02:01.765Z,579.29
2023-11-19T00:02:12.694Z,579.29
2023-11-19T00:02:24.635Z,579.38
2023-11-19T00:02:36.721Z,579.70
2023-11-19T00:02:48.803Z,579.82
2023-11-19T00:03:00.708Z,579.79
2023-11-19T00:03:12.651Z,579.97
2023-11-19T00:03:24.614Z,580.12
2023-11-19T00:03:35.616Z,579.75
2023-11-19T00:03:47.531Z,580.50
2023-11-19T00:03:58.720Z,580.89
2023-11-19T00:04:10.662Z,580.91
2023-11-19T00:04:22.686Z,580.38
2023-11-19T00:04:33.684Z,580.14
2023-11-19T00:04:44.636Z,580.48
2023-11-19T00:04:55.681Z,580.28
2023-11-19T00:05:06.647Z,580.35
2023-11-19T00:05:17.600Z,580.50
2023-11-19T00:05:29.583Z,580.60
2023-11-19T00:05:40.597Z,580.26
2023-11-19T00:05:51.596Z,581.00
2023-11-19T00:06:02.600Z,580.60
2023-11-19T00:06:13.599Z,580.67
2023-11-19T00:06:24.597Z,580.40
2023-11-19T00:06:35.594Z,580.51
2023-11-19T00:06:47.613Z,580.78
2023-11-19T00:06:58.618Z,580.67
2023-11-19T00:07:09.684Z,580.42
2023-11-19T00:07:21.669Z,580.27
2023-11-19T00:07:35.538Z,581.26
2023-11-19T00:07:43.776Z,580.41
2023-11-19T00:07:55.598Z,580.28
2023-11-19T00:08:07.585Z,580.12
2023-11-19T00:08:18.575Z,579.39
2023-11-19T00:08:29.558Z,580.17
2023-11-19T00:08:40.545Z,580.10
2023-11-19T00:08:51.628Z,580.46
2023-11-19T00:09:03.596Z,580.30
2023-11-19T00:09:14.587Z,580.50
2023-11-19T00:09:25.583Z,580.54
2023-11-19T00:09:36.582Z,579.97
2023-11-19T00:09:47.584Z,580.11
2023-11-19T00:09:58.582Z,579.94
2023-11-19T00:10:09.613Z,580.19
2023-11-19T00:10:21.590Z,580.72
2023-11-19T00:10:32.615Z,580.70
2023-11-19T00:10:44.584Z,580.23
2023-11-19T00:10:55.580Z,580.17
2023-11-19T00:11:06.578Z,579.65
2023-11-19T00:11:17.578Z,579.95
2023-11-19T00:11:28.599Z,579.39
2023-11-19T00:11:39.597Z,579.56
2023-11-19T00:12:02.616Z,580.08
2023-11-19T00:12:13.602Z,580.19
2023-11-19T00:12:24.603Z,579.79
2023-11-19T00:12:36.618Z,580.29
2023-11-19T00:12:48.608Z,580.46
2023-11-19T00:12:59.626Z,580.25
2023-11-19T00:13:11.688Z,580.49
2023-11-19T00:13:23.619Z,580.90
2023-11-19T00:13:35.584Z,580.94
2023-11-19T00:13:46.600Z,580.52
2023-11-19T00:13:57.601Z,580.83
2023-11-19T00:14:08.596Z,580.86
2023-11-19T00:14:19.600Z,580.73
2023-11-19T00:14:30.602Z,580.22
2023-11-19T00:14:41.600Z,580.34
2023-11-19T00:14:53.582Z,580.80
2023-11-19T00:15:04.576Z,581.11
2023-11-19T00:15:15.602Z,580.47
2023-11-19T00:15:26.600Z,580.05
2023-11-19T00:15:37.588Z,580.59
2023-11-19T00:15:48.701Z,580.71
2023-11-19T00:15:59.615Z,581.19
2023-11-19T00:16:11.596Z,581.04
2023-11-19T00:16:22.623Z,581.47
2023-11-19T00:16:33.571Z,581.48
2023-11-19T00:16:44.555Z,581.43
2023-11-19T00:16:55.553Z,582.85
2023-11-19T00:17:06.554Z,581.40
2023-11-19T00:17:17.645Z,581.52
2023-11-19T00:17:29.761Z,581.50
2023-11-19T00:17:42.004Z,581.51
2023-11-19T00:17:53.605Z,581.53
2023-11-19T00:18:04.655Z,581.74
2023-11-19T00:18:15.669Z,582.08
2023-11-19T00:18:27.661Z,582.75
2023-11-19T00:18:38.605Z,581.55
2023-11-19T00:18:50.685Z,582.15
2023-11-19T00:19:02.653Z,582.43
2023-11-19T00:19:13.576Z,582.33
2023-11-19T00:19:24.608Z,582.20
2023-11-19T00:19:36.599Z,581.78
2023-11-19T00:19:47.592Z,582.25
2023-11-19T00:19:59.598Z,582.12
2023-11-19T00:20:10.595Z,581.85
2023-11-19T00:20:21.606Z,581.86
2023-11-19T00:20:32.594Z,581.67
2023-11-19T00:20:43.606Z,581.91
2023-11-19T00:20:54.597Z,581.48
2023-11-19T00:21:05.595Z,581.96
2023-11-19T00:21:17.596Z,581.72
2023-11-19T00:21:28.584Z,581.91
2023-11-19T00:21:39.588Z,581.99
2023-11-19T00:21:50.619Z,583.72
2023-11-19T00:22:02.618Z,583.07
2023-11-19T00:22:14.617Z,582.64
2023-11-19T00:22:26.617Z,583.17
2023-11-19T00:22:49.050Z,582.78
2023-11-19T00:22:51.583Z,583.28
2023-11-19T00:23:01.609Z,582.82
2023-11-19T00:23:12.610Z,582.50
2023-11-19T00:23:23.601Z,583.13
2023-11-19T00:23:34.601Z,583.25
2023-11-19T00:23:45.601Z,583.00
2023-11-19T00:23:56.613Z,583.39
2023-11-19T00:24:07.606Z,582.55
2023-11-19T00:24:18.586Z,583.26
2023-11-19T00:24:30.608Z,583.75
2023-11-19T00:24:41.608Z,583.88
2023-11-19T00:24:52.618Z,584.13
2023-11-19T00:25:04.627Z,584.42
2023-11-19T00:25:16.639Z,583.41
2023-11-19T00:25:27.657Z,584.66
2023-11-19T00:25:38.651Z,583.73
2023-11-19T00:25:50.565Z,584.25
2023-11-19T00:26:01.571Z,584.59
2023-11-19T00:26:12.599Z,584.39
2023-11-19T00:26:23.587Z,584.22
2023-11-19T00:26:34.597Z,583.94
2023-11-19T00:26:45.602Z,584.38
2023-11-19T00:26:56.586Z,584.27
2023-11-19T00:27:07.594Z,583.85
2023-11-19T00:27:18.616Z,584.26
2023-11-19T00:27:30.591Z,583.78
2023-11-19T00:27:41.600Z,584.03
2023-11-19T00:27:52.739Z,584.50
2023-11-19T00:28:03.639Z,583.97
2023-11-19T00:28:15.627Z,584.68
2023-11-19T00:28:27.622Z,584.54
2023-11-19T00:28:38.612Z,584.73
2023-11-19T00:28:49.665Z,584.10
2023-11-19T00:29:00.557Z,585.24
2023-11-19T00:29:11.646Z,583.89
2023-11-19T00:29:23.613Z,585.36
2023-11-19T00:29:35.617Z,584.25
2023-11-19T00:29:47.593Z,584.87
2023-11-19T00:29:58.590Z,585.33
2023-11-19T00:30:09.648Z,584.73
2023-11-19T00:30:20.569Z,584.50
2023-11-19T00:30:31.587Z,583.57
2023-11-19T00:30:42.582Z,585.06
2023-11-19T00:30:53.646Z,584.99
2023-11-19T00:31:04.624Z,584.91
2023-11-19T00:31:16.638Z,585.35
2023-11-19T00:31:27.703Z,585.18
2023-11-19T00:31:39.704Z,584.87
2023-11-19T00:31:50.878Z,584.94
2023-11-19T00:32:01.678Z,589.03
2023-11-19T00:32:13.612Z,585.35
2023-11-19T00:32:24.613Z,584.96
2023-11-19T00:32:35.605Z,584.87
2023-11-19T00:32:47.598Z,584.56
2023-11-19T00:32:59.581Z,585.41
2023-11-19T00:33:10.615Z,585.43
2023-11-19T00:33:22.604Z,585.76
2023-11-19T00:33:34.594Z,585.37
2023-11-19T00:33:57.690Z,586.01
2023-11-19T00:34:08.626Z,585.46
2023-11-19T00:34:20.646Z,585.56
2023-11-19T00:34:32.670Z,585.75
2023-11-19T00:34:44.704Z,585.85
2023-11-19T00:34:56.557Z,586.05
2023-11-19T00:35:07.654Z,586.63
2023-11-19T00:35:19.619Z,586.02
2023-11-19T00:35:30.612Z,586.33
2023-11-19T00:35:41.609Z,587.01
2023-11-19T00:35:52.604Z,585.85
2023-11-19T00:36:03.598Z,586.67
2023-11-19T00:36:14.574Z,586.76
2023-11-19T00:36:25.583Z,587.11
2023-11-19T00:36:36.570Z,586.26
2023-11-19T00:36:47.646Z,585.97
2023-11-19T00:36:59.642Z,588.08
2023-11-19T00:37:11.669Z,587.33
2023-11-19T00:37:22.623Z,587.53
2023-11-19T00:37:34.585Z,587.48
2023-11-19T00:37:45.575Z,587.13
2023-11-19T00:37:56.585Z,586.97
2023-11-19T00:38:07.579Z,587.04
2023-11-19T00:38:18.584Z,586.66
2023-11-19T00:38:29.572Z,586.37
2023-11-19T00:38:40.573Z,587.04
2023-11-19T00:38:51.580Z,586.91
2023-11-19T00:39:02.626Z,588.61
2023-11-19T00:39:13.612Z,586.73
2023-11-19T00:39:24.615Z,587.04
2023-11-19T00:39:35.604Z,586.44
2023-11-19T00:39:47.593Z,586.36
2023-11-19T00:39:58.593Z,586.22
2023-11-19T00:40:09.630Z,587.38
2023-11-19T00:40:20.657Z,586.10
2023-11-19T00:40:32.661Z,586.38
2023-11-19T00:40:44.649Z,586.81
2023-11-19T00:40:56.615Z,586.20
2023-11-19T00:41:07.617Z,585.49
2023-11-19T00:41:18.625Z,586.18
2023-11-19T00:41:29.618Z,586.92
2023-11-19T00:41:41.586Z,587.36
2023-11-19T00:41:53.602Z,586.98
2023-11-19T00:42:04.607Z,586.76
2023-11-19T00:42:15.597Z,586.71
2023-11-19T00:42:26.596Z,586.66
2023-11-19T00:42:37.598Z,586.39
2023-11-19T00:42:48.618Z,586.47
2023-11-19T00:43:01.660Z,586.20
2023-11-19T00:43:12.714Z,586.97
2023-11-19T00:43:24.644Z,586.25
2023-11-19T00:43:35.619Z,586.17
2023-11-19T00:43:46.638Z,586.96
2023-11-19T00:43:58.600Z,586.94
2023-11-19T00:44:10.604Z,586.89
2023-11-19T00:44:21.598Z,586.91
2023-11-19T00:44:32.605Z,587.10
2023-11-19T00:44:51.109Z,587.03
2023-11-19T00:44:56.622Z,586.51
2023-11-19T00:45:06.567Z,587.00
2023-11-19T00:45:17.619Z,587.75
2023-11-19T00:45:29.609Z,587.40
2023-11-19T00:45:40.613Z,587.62
2023-11-19T00:45:51.659Z,587.79
2023-11-19T00:46:02.603Z,588.32
2023-11-19T00:46:13.683Z,587.78
2023-11-19T00:46:24.693Z,587.69
2023-11-19T00:46:36.645Z,587.55
2023-11-19T00:46:47.642Z,588.25
2023-11-19T00:46:58.577Z,587.44
2023-11-19T00:47:09.618Z,587.77
2023-11-19T00:47:21.728Z,588.00
2023-11-19T00:47:32.709Z,588.22
2023-11-19T00:47:44.645Z,587.64
2023-11-19T00:47:56.629Z,588.60
2023-11-19T00:48:08.658Z,587.69
2023-11-19T00:48:20.582Z,587.19
2023-11-19T00:48:31.582Z,587.89
2023-11-19T00:48:42.584Z,587.56
2023-11-19T00:48:53.587Z,587.77
2023-11-19T00:49:04.611Z,586.42
2023-11-19T00:49:15.625Z,587.89
2023-11-19T00:49:27.638Z,588.95
2023-11-19T00:49:39.635Z,587.32
2023-11-19T00:49:51.602Z,587.40
2023-11-19T00:50:02.590Z,587.30
2023-11-19T00:50:13.625Z,588.54
2023-11-19T00:50:25.583Z,587.33
2023-11-19T00:50:38.238Z,588.37
2023-11-19T00:50:47.624Z,587.72
2023-11-19T00:50:58.616Z,587.12
2023-11-19T00:51:10.597Z,587.43
2023-11-19T00:51:21.612Z,587.70
2023-11-19T00:51:33.620Z,588.29
2023-11-19T00:51:44.606Z,587.90
2023-11-19T00:51:55.642Z,587.67
2023-11-19T00:52:07.675Z,588.87
2023-11-19T00:52:19.722Z,587.70
2023-11-19T00:52:31.682Z,588.10
2023-11-19T00:52:42.597Z,588.04
2023-11-19T00:52:53.591Z,588.05
2023-11-19T00:53:04.582Z,587.59
2023-11-19T00:53:15.583Z,587.44
2023-11-19T00:53:26.591Z,587.81
2023-11-19T00:53:37.595Z,587.42
2023-11-19T00:53:48.593Z,589.68
2023-11-19T00:53:59.600Z,587.25
2023-11-19T00:54:10.611Z,587.37
2023-11-19T00:54:21.596Z,588.76
2023-11-19T00:54:32.589Z,587.27
2023-11-19T00:54:43.600Z,586.86
2023-11-19T00:54:54.607Z,588.26
2023-11-19T00:55:05.640Z,586.89
2023-11-19T00:55:17.657Z,586.19
2023-11-19T00:55:28.681Z,586.26
2023-11-19T00:55:47.095Z,588.16
2023-11-19T00:55:52.597Z,585.78
2023-11-19T00:56:02.586Z,586.31
2023-11-19T00:56:13.672Z,586.32
2023-11-19T00:56:24.598Z,586.57
2023-11-19T00:56:35.598Z,587.64
2023-11-19T00:56:46.623Z,586.65
2023-11-19T00:56:58.581Z,588.02
2023-11-19T00:57:09.590Z,586.67
2023-11-19T00:57:20.583Z,586.46
2023-11-19T00:57:31.570Z,586.79
2023-11-19T00:57:42.589Z,586.60
2023-11-19T00:57:53.639Z,586.87
2023-11-19T00:58:04.649Z,587.07
2023-11-19T00:58:15.603Z,587.15
2023-11-19T00:58:27.628Z,587.16
2023-11-19T00:58:38.613Z,587.17
2023-11-19T00:58:49.629Z,586.86
2023-11-19T00:59:01.585Z,587.08
2023-11-19T00:59:12.582Z,587.63
2023-11-19T00:59:23.595Z,586.06
2023-11-19T00:59:34.578Z,587.66
2023-11-19T00:59:45.590Z,587.30
2023-11-19T00:59:56.595Z,587.47
2023-11-19T01:00:07.606Z,588.12
2023-11-19T01:00:20.760Z,586.98
2023-11-19T01:00:30.593Z,586.74
2023-11-19T01:00:41.593Z,587.25
2023-11-19T01:00:52.603Z,586.73
2023-11-19T01:01:04.622Z,587.07
2023-11-19T01:01:16.642Z,587.11
2023-11-19T01:01:28.638Z,587.33
2023-11-19T01:01:40.597Z,586.90
2023-11-19T01:01:51.597Z,587.04
2023-11-19T01:02:02.632Z,587.79
2023-11-19T01:02:14.620Z,587.18
2023-11-19T01:02:26.638Z,586.90
2023-11-19T01:02:38.774Z,587.45
2023-11-19T01:02:50.905Z,587.05
2023-11-19T01:03:01.850Z,587.95
2023-11-19T01:03:13.880Z,587.80
2023-11-19T01:03:25.712Z,588.17
2023-11-19T01:03:36.690Z,587.31
2023-11-19T01:03:47.613Z,587.37
2023-11-19T01:03:58.724Z,586.87
2023-11-19T01:04:09.688Z,586.60
2023-11-19T01:04:20.698Z,587.15
2023-11-19T01:04:32.669Z,587.10
2023-11-19T01:04:43.647Z,587.47
2023-11-19T01:04:54.653Z,586.97
2023-11-19T01:05:05.600Z,586.94
2023-11-19T01:05:16.631Z,587.42
2023-11-19T01:05:28.590Z,586.90
2023-11-19T01:05:39.573Z,587.15
2023-11-19T01:05:51.579Z,587.09
2023-11-19T01:06:02.585Z,587.14
2023-11-19T01:06:13.564Z,587.25
2023-11-19T01:06:24.645Z,586.95
2023-11-19T01:06:36.628Z,587.75
2023-11-19T01:06:50.252Z,587.94
2023-11-19T01:06:58.652Z,587.03
2023-11-19T01:07:09.629Z,586.60
2023-11-19T01:07:21.617Z,586.26
2023-11-19T01:07:33.627Z,586.87
2023-11-19T01:07:44.559Z,586.79
2023-11-19T01:07:56.177Z,585.01
2023-11-19T01:08:07.667Z,586.14
2023-11-19T01:08:19.634Z,586.46
2023-11-19T01:08:31.625Z,587.01
2023-11-19T01:08:43.590Z,586.57
2023-11-19T01:08:54.586Z,587.04
2023-11-19T01:09:05.609Z,586.95
2023-11-19T01:09:16.609Z,586.51
2023-11-19T01:09:27.608Z,586.79
2023-11-19T01:09:39.589Z,586.90
2023-11-19T01:09:50.660Z,586.63
2023-11-19T01:10:02.671Z,586.82
2023-11-19T01:10:14.589Z,588.17
2023-11-19T01:10:25.889Z,587.39
2023-11-19T01:10:37.620Z,587.07
2023-11-19T01:10:49.603Z,587.92
2023-11-19T01:11:00.592Z,587.42
2023-11-19T01:11:11.590Z,586.88
2023-11-19T01:11:22.590Z,587.57
2023-11-19T01:11:33.580Z,587.31
2023-11-19T01:11:44.575Z,588.44
2023-11-19T01:11:55.578Z,587.22
2023-11-19T01:12:06.615Z,587.70
2023-11-19T01:12:18.612Z,587.69
2023-11-19T01:12:30.628Z,587.83
2023-11-19T01:12:42.594Z,587.71
2023-11-19T01:12:53.731Z,587.71
2023-11-19T01:13:04.592Z,587.89
2023-11-19T01:13:16.674Z,588.23
2023-11-19T01:13:27.587Z,588.04
2023-11-19T01:13:38.588Z,587.90
2023-11-19T01:13:50.587Z,587.52
2023-11-19T01:14:01.572Z,587.93
2023-11-19T01:14:12.583Z,587.95
2023-11-19T01:14:23.668Z,588.63
2023-11-19T01:14:34.563Z,588.10
2023-11-19T01:14:45.574Z,588.09
2023-11-19T01:14:56.584Z,588.50
2023-11-19T01:15:07.630Z,588.03
2023-11-19T01:15:19.619Z,588.38
2023-11-19T01:15:31.605Z,588.56
2023-11-19T01:15:42.734Z,588.79
2023-11-19T01:15:54.687Z,588.69
2023-11-19T01:16:06.610Z,588.46
2023-11-19T01:16:18.666Z,588.76
2023-11-19T01:16:29.654Z,588.87
2023-11-19T01:16:40.650Z,588.50
2023-11-19T01:16:51.679Z,588.56
2023-11-19T01:17:02.746Z,588.93
2023-11-19T01:17:13.600Z,588.52
2023-11-19T01:17:24.610Z,588.31
2023-11-19T01:17:35.629Z,588.09
2023-11-19T01:17:59.624Z,588.16
2023-11-19T01:18:11.667Z,588.12
2023-11-19T01:18:22.620Z,587.96
2023-11-19T01:18:33.612Z,588.02
2023-11-19T01:18:45.601Z,587.84
2023-11-19T01:19:09.295Z,587.74
2023-11-19T01:19:15.756Z,588.13
2023-11-19T01:19:21.667Z,588.27
2023-11-19T01:19:32.620Z,588.04
2023-11-19T01:19:44.653Z,587.99
2023-11-19T01:19:56.633Z,588.17
2023-11-19T01:20:08.625Z,588.24
2023-11-19T01:20:20.590Z,588.02
2023-11-19T01:20:31.620Z,588.32
2023-11-19T01:20:43.617Z,588.05
2023-11-19T01:20:55.592Z,588.56
2023-11-19T01:21:06.596Z,588.28
2023-11-19T01:21:17.603Z,588.09
2023-11-19T01:21:28.599Z,587.64
2023-11-19T01:21:39.617Z,588.14
2023-11-19T01:21:50.613Z,588.26
2023-11-19T01:22:01.650Z,588.14
2023-11-19T01:22:13.688Z,588.11
2023-11-19T01:22:24.669Z,588.26
2023-11-19T01:22:35.580Z,588.09
2023-11-19T01:22:46.565Z,588.38
2023-11-19T01:22:57.565Z,588.10
2023-11-19T01:23:08.577Z,588.77
2023-11-19T01:23:19.646Z,588.58
2023-11-19T01:23:30.555Z,588.58
2023-11-19T01:23:41.640Z,588.74
2023-11-19T01:23:53.587Z,588.56
2023-11-19T01:24:04.591Z,589.27
2023-11-19T01:24:15.600Z,589.44
2023-11-19T01:24:26.599Z,588.43
2023-11-19T01:24:37.579Z,588.90
2023-11-19T01:24:48.580Z,589.22
2023-11-19T01:25:00.630Z,588.97
2023-11-19T01:25:11.577Z,588.93
2023-11-19T01:25:22.616Z,589.18
2023-11-19T01:25:34.644Z,588.82
2023-11-19T01:25:45.566Z,588.97
2023-11-19T01:25:56.569Z,589.69
2023-11-19T01:26:07.609Z,589.16
2023-11-19T01:26:18.609Z,589.33
2023-11-19T01:26:30.618Z,589.44
2023-11-19T01:26:42.595Z,589.76
2023-11-19T01:26:54.602Z,589.99
2023-11-19T01:27:05.600Z,590.23
2023-11-19T01:27:16.582Z,590.04
2023-11-19T01:27:27.590Z,590.14
2023-11-19T01:27:38.599Z,590.23
2023-11-19T01:27:49.661Z,590.59
2023-11-19T01:28:00.601Z,590.53
2023-11-19T01:28:11.676Z,590.53
2023-11-19T01:28:23.678Z,590.20
2023-11-19T01:28:35.637Z,590.73
2023-11-19T01:28:59.615Z,590.90
2023-11-19T01:29:11.580Z,590.34
2023-11-19T01:29:22.586Z,590.50
2023-11-19T01:29:33.586Z,590.91
2023-11-19T01:29:44.621Z,590.35
2023-11-19T01:29:55.609Z,590.62
2023-11-19T01:30:06.609Z,590.34
2023-11-19T01:30:18.591Z,590.52
2023-11-19T01:30:29.584Z,590.50
2023-11-19T01:30:41.580Z,590.33
2023-11-19T01:30:52.603Z,590.65
2023-11-19T01:31:04.619Z,590.60
2023-11-19T01:31:16.713Z,590.50
2023-11-19T01:31:28.695Z,590.13
2023-11-19T01:31:40.581Z,590.94
2023-11-19T01:31:51.589Z,591.21
2023-11-19T01:32:02.593Z,591.35
2023-11-19T01:32:13.602Z,591.89
2023-11-19T01:32:25.574Z,591.10
2023-11-19T01:32:36.584Z,591.17
2023-11-19T01:32:47.587Z,591.53
2023-11-19T01:32:58.658Z,591.42
2023-11-19T01:33:09.630Z,591.65
2023-11-19T01:33:20.558Z,591.71
2023-11-19T01:33:31.578Z,591.26
2023-11-19T01:33:42.633Z,591.34
2023-11-19T01:33:54.738Z,591.00
2023-11-19T01:34:06.662Z,591.35
2023-11-19T01:34:18.678Z,591.22
2023-11-19T01:34:30.620Z,591.33
2023-11-19T01:34:41.646Z,591.47
2023-11-19T01:34:52.682Z,591.12
2023-11-19T01:35:04.643Z,591.50
2023-11-19T01:35:15.554Z,591.42
2023-11-19T01:35:28.290Z,591.88
2023-11-19T01:35:37.597Z,591.71
2023-11-19T01:35:49.657Z,591.46
2023-11-19T01:36:01.610Z,591.05
2023-11-19T01:36:13.575Z,590.94
2023-11-19T01:36:24.580Z,591.21
2023-11-19T01:36:35.576Z,591.18
2023-11-19T01:36:46.619Z,591.29
2023-11-19T01:36:58.657Z,591.49
2023-11-19T01:37:09.645Z,591.61
2023-11-19T01:37:20.670Z,591.36
2023-11-19T01:37:32.705Z,591.83
2023-11-19T01:37:44.604Z,591.56
2023-11-19T01:37:56.586Z,591.40
2023-11-19T01:38:07.588Z,591.64
2023-11-19T01:38:18.594Z,591.80
2023-11-19T01:38:29.577Z,591.94
2023-11-19T01:38:40.575Z,592.23
2023-11-19T01:38:51.608Z,591.55
2023-11-19T01:39:03.580Z,592.04
2023-11-19T01:39:14.566Z,592.54
2023-11-19T01:39:25.580Z,592.50
2023-11-19T01:39:36.609Z,592.00
2023-11-19T01:39:58.875Z,592.71
2023-11-19T01:40:00.613Z,591.95
2023-11-19T01:40:10.643Z,591.80
2023-11-19T01:40:22.663Z,592.16
2023-11-19T01:40:34.693Z,591.94
2023-11-19T01:40:46.588Z,591.72
2023-11-19T01:40:57.585Z,591.72
2023-11-19T01:41:08.611Z,592.56
2023-11-19T01:41:19.629Z,592.62
2023-11-19T01:41:31.576Z,592.68
2023-11-19T01:41:42.583Z,592.84
2023-11-19T01:41:53.656Z,592.98
2023-11-19T01:42:04.643Z,592.88
2023-11-19T01:42:16.596Z,592.26
2023-11-19T01:42:27.598Z,592.53
2023-11-19T01:42:38.596Z,592.29
2023-11-19T01:42:49.586Z,592.69
2023-11-19T01:43:00.583Z,592.86
2023-11-19T01:43:11.594Z,593.14
2023-11-19T01:43:22.625Z,593.23
2023-11-19T01:43:34.597Z,593.40
2023-11-19T01:43:45.587Z,593.18
2023-11-19T01:43:57.590Z,593.71
2023-11-19T01:44:08.562Z,593.22
2023-11-19T01:44:19.554Z,593.25
2023-11-19T01:44:30.582Z,593.39
2023-11-19T01:44:41.570Z,593.16
2023-11-19T01:44:52.569Z,593.50
2023-11-19T01:45:03.582Z,593.68
2023-11-19T01:45:14.599Z,593.50
2023-11-19T01:45:26.671Z,593.83
2023-11-19T01:45:38.638Z,593.30
2023-11-19T01:45:50.621Z,593.60
2023-11-19T01:46:02.677Z,592.96
2023-11-19T01:46:13.656Z,593.28
2023-11-19T01:46:24.672Z,592.82
2023-11-19T01:46:35.642Z,593.03
2023-11-19T01:46:46.813Z,593.89
2023-11-19T01:46:58.702Z,594.04
2023-11-19T01:47:09.609Z,592.91
2023-11-19T01:47:20.609Z,593.08
2023-11-19T01:47:31.623Z,593.42
2023-11-19T01:47:43.616Z,593.56
2023-11-19T01:47:54.634Z,593.30
2023-11-19T01:48:06.625Z,593.58
2023-11-19T01:48:18.610Z,593.47
2023-11-19T01:48:29.589Z,593.23
2023-11-19T01:48:40.574Z,593.16
2023-11-19T01:48:51.722Z,593.84
2023-11-19T01:49:02.633Z,592.98
2023-11-19T01:49:14.641Z,592.91
2023-11-19T01:49:25.606Z,593.60
2023-11-19T01:49:36.614Z,593.71
2023-11-19T01:49:47.595Z,594.27
2023-11-19T01:49:59.578Z,592.59
2023-11-19T01:50:10.683Z,593.62
2023-11-19T01:50:21.584Z,593.53
2023-11-19T01:50:32.581Z,593.67
2023-11-19T01:50:43.597Z,594.69
2023-11-19T01:51:02.606Z,594.41
2023-11-19T01:51:06.608Z,593.51
2023-11-19T01:51:17.631Z,594.24
2023-11-19T01:51:29.623Z,593.71
2023-11-19T01:51:41.593Z,593.96
2023-11-19T01:51:52.603Z,594.90
2023-11-19T01:52:03.614Z,593.53
2023-11-19T01:52:15.654Z,594.66
2023-11-19T01:52:26.670Z,594.25
2023-11-19T01:52:37.603Z,594.35
2023-11-19T01:52:48.611Z,594.63
2023-11-19T01:52:59.608Z,594.70
2023-11-19T01:53:10.611Z,594.78
2023-11-19T01:53:21.604Z,594.32
2023-11-19T01:53:33.585Z,594.87
2023-11-19T01:53:44.578Z,594.49
2023-11-19T01:53:55.579Z,594.84
2023-11-19T01:54:07.577Z,594.79
2023-11-19T01:54:18.578Z,594.40
2023-11-19T01:54:29.568Z,594.81
2023-11-19T01:54:40.576Z,594.73
2023-11-19T01:54:51.572Z,594.90
2023-11-19T01:55:02.615Z,594.58
2023-11-19T01:55:14.637Z,594.53
2023-11-19T01:55:26.655Z,594.81
2023-11-19T01:55:37.643Z,595.04
2023-11-19T01:55:48.645Z,595.10
2023-11-19T01:56:00.643Z,594.57
2023-11-19T01:56:12.605Z,594.48
2023-11-19T01:56:23.603Z,594.47
2023-11-19T01:56:34.636Z,594.35
2023-11-19T01:56:46.608Z,594.37
2023-11-19T01:56:57.601Z,594.73
2023-11-19T01:57:08.592Z,594.70
2023-11-19T01:57:19.595Z,594.29
2023-11-19T01:57:30.597Z,595.12
2023-11-19T01:57:41.595Z,594.92
2023-11-19T01:57:52.598Z,594.92
2023-11-19T01:58:03.654Z,594.69
2023-11-19T01:58:14.615Z,594.82
2023-11-19T01:58:26.603Z,595.02
2023-11-19T01:58:37.565Z,595.01
2023-11-19T01:58:48.554Z,595.27
2023-11-19T01:58:59.548Z,594.87
2023-11-19T01:59:10.652Z,595.56
2023-11-19T01:59:22.630Z,594.62
2023-11-19T01:59:34.594Z,595.30
2023-11-19T01:59:45.583Z,595.02
2023-11-19T01:59:56.595Z,595.09
2023-11-19T02:00:07.602Z,594.67
2023-11-19T02:00:18.604Z,594.64
2023-11-19T02:00:29.614Z,594.70
2023-11-19T02:00:41.584Z,595.33
2023-11-19T02:00:52.651Z,595.27
2023-11-19T02:01:03.606Z,595.20
2023-11-19T02:01:14.727Z,594.55
2023-11-19T02:01:26.790Z,595.10
2023-11-19T02:01:38.717Z,595.48
2023-11-19T02:02:00.347Z,595.25
2023-11-19T02:02:02.029Z,595.33
2023-11-19T02:02:11.684Z,595.33
2023-11-19T02:02:23.915Z,595.03
2023-11-19T02:02:34.736Z,594.57
2023-11-19T02:02:45.972Z,595.31
2023-11-19T02:02:57.759Z,595.42
2023-11-19T02:03:09.760Z,595.17
2023-11-19T02:03:20.694Z,595.11
2023-11-19T02:03:31.712Z,594.76
2023-11-19T02:03:42.648Z,596.02
2023-11-19T02:03:53.993Z,595.06
2023-11-19T02:04:05.706Z,596.11
2023-11-19T02:04:16.730Z,594.65
2023-11-19T02:04:27.803Z,595.34
2023-11-19T02:04:38.718Z,595.05
2023-11-19T02:04:50.647Z,596.07
2023-11-19T02:05:02.639Z,595.48
2023-11-19T02:05:14.653Z,595.13
2023-11-19T02:05:25.579Z,595.66
2023-11-19T02:05:36.566Z,595.89
2023-11-19T02:05:47.561Z,594.30
2023-11-19T02:05:58.602Z,593.90
2023-11-19T02:06:09.607Z,595.02
2023-11-19T02:06:20.620Z,595.76
2023-11-19T02:06:32.588Z,595.25
2023-11-19T02:06:43.586Z,595.49
2023-11-19T02:06:55.605Z,596.50
2023-11-19T02:07:06.618Z,595.58
2023-11-19T02:07:18.623Z,595.81
2023-11-19T02:07:29.555Z,596.22
2023-11-19T02:07:40.648Z,595.52
2023-11-19T02:07:52.632Z,595.71
2023-11-19T02:08:04.608Z,595.83
2023-11-19T02:08:16.566Z,596.09
2023-11-19T02:08:27.577Z,596.23
2023-11-19T02:08:38.601Z,595.97
2023-11-19T02:08:49.643Z,596.41
2023-11-19T02:09:01.593Z,596.03
2023-11-19T02:09:12.588Z,596.35
2023-11-19T02:09:23.574Z,595.46
2023-11-19T02:09:34.580Z,596.05
2023-11-19T02:09:45.625Z,595.08
2023-11-19T02:09:57.635Z,595.18
2023-11-19T02:10:09.670Z,595.71
2023-11-19T02:10:21.621Z,595.65
2023-11-19T02:10:33.597Z,596.92
2023-11-19T02:10:44.629Z,595.78
2023-11-19T02:10:55.607Z,595.34
2023-11-19T02:11:06.608Z,595.92
2023-11-19T02:11:17.593Z,595.39
2023-11-19T02:11:28.584Z,595.60
2023-11-19T02:11:39.574Z,595.12
2023-11-19T02:11:50.556Z,595.85
2023-11-19T02:12:01.596Z,597.57
2023-11-19T02:12:12.591Z,595.96
2023-11-19T02:12:23.585Z,595.91
2023-11-19T02:12:34.604Z,595.84
2023-11-19T02:12:46.590Z,595.92
2023-11-19T02:13:06.264Z,595.44
2023-11-19T02:13:10.613Z,596.11
2023-11-19T02:13:20.568Z,596.09
2023-11-19T02:13:31.572Z,596.23
2023-11-19T02:13:43.619Z,596.09
2023-11-19T02:13:54.610Z,596.10
2023-11-19T02:14:05.607Z,596.63
2023-11-19T02:14:16.664Z,596.72
2023-11-19T02:14:28.607Z,596.20
2023-11-19T02:14:39.604Z,595.50
2023-11-19T02:14:50.611Z,597.70
2023-11-19T02:15:02.614Z,596.68
2023-11-19T02:15:13.635Z,596.42
2023-11-19T02:15:25.614Z,596.66
2023-11-19T02:15:37.629Z,595.97
2023-11-19T02:15:49.657Z,596.38
2023-11-19T02:16:00.694Z,595.54
2023-11-19T02:16:12.853Z,597.26
2023-11-19T02:16:24.641Z,596.36
2023-11-19T02:16:36.739Z,596.63
2023-11-19T02:16:48.647Z,596.72
2023-11-19T02:17:00.603Z,597.47
2023-11-19T02:17:11.598Z,597.02
2023-11-19T02:17:22.596Z,596.62
2023-11-19T02:17:33.658Z,596.82
2023-11-19T02:17:45.657Z,597.47
2023-11-19T02:17:57.630Z,596.28
2023-11-19T02:18:09.596Z,596.64
2023-11-19T02:18:20.603Z,597.63
2023-11-19T02:18:31.681Z,596.29
2023-11-19T02:18:42.609Z,595.94
2023-11-19T02:18:53.623Z,595.63
2023-11-19T02:19:05.657Z,596.15
2023-11-19T02:19:16.638Z,595.82
2023-11-19T02:19:28.672Z,595.65
2023-11-19T02:19:39.605Z,595.75
2023-11-19T02:19:50.600Z,595.85
2023-11-19T02:20:01.594Z,595.28
2023-11-19T02:20:13.804Z,596.31
2023-11-19T02:20:24.647Z,595.79
2023-11-19T02:20:36.622Z,596.31
2023-11-19T02:20:50.924Z,595.60
2023-11-19T02:21:00.601Z,596.23
2023-11-19T02:21:11.589Z,595.19
2023-11-19T02:21:23.595Z,595.97
2023-11-19T02:21:34.593Z,596.35
2023-11-19T02:21:45.580Z,596.09
2023-11-19T02:21:56.601Z,596.03
2023-11-19T02:22:07.676Z,596.43
2023-11-19T02:22:19.706Z,596.11